sensor_id;sensor_type;location;lat;lon;timestamp;temperature;humidity
47576;DHT22;33304;52.456;13.328;2024-01-30T00:02:23;4.00;16.00
47576;DHT22;33304;52.456;13.328;2024-01-30T00:04:51;4.10;15.80
47576;DHT22;33304;52.456;13.328;2024-01-30T00:07:18;4.10;15.90
47576;DHT22;33304;52.456;13.328;2024-01-30T00:09:46;4.10;15.40
47576;DHT22;33304;52.456;13.328;2024-01-30T00:12:14;4.00;15.80
47576;DHT22;33304;52.456;13.328;2024-01-30T00:14:41;4.00;15.80
47576;DHT22;33304;52.456;13.328;2024-01-30T00:17:09;4.00;15.70
47576;DHT22;33304;52.456;13.328;2024-01-30T00:19:36;4.00;15.80
47576;DHT22;33304;52.456;13.328;2024-01-30T00:22:05;4.00;16.10
47576;DHT22;33304;52.456;13.328;2024-01-30T00:24:32;4.10;15.60
47576;DHT22;33304;52.456;13.328;2024-01-30T00:26:59;4.10;15.80
47576;DHT22;33304;52.456;13.328;2024-01-30T00:29:26;4.00;16.00
47576;DHT22;33304;52.456;13.328;2024-01-30T00:31:56;3.90;16.20
47576;DHT22;33304;52.456;13.328;2024-01-30T00:34:23;4.00;16.30
47576;DHT22;33304;52.456;13.328;2024-01-30T00:36:50;3.90;16.00
47576;DHT22;33304;52.456;13.328;2024-01-30T00:39:18;3.90;16.90
47576;DHT22;33304;52.456;13.328;2024-01-30T00:41:46;3.70;16.70
47576;DHT22;33304;52.456;13.328;2024-01-30T00:44:13;3.80;16.80
47576;DHT22;33304;52.456;13.328;2024-01-30T00:46:40;3.80;17.00
47576;DHT22;33304;52.456;13.328;2024-01-30T00:49:07;3.80;16.90
47576;DHT22;33304;52.456;13.328;2024-01-30T00:51:34;3.70;17.10
47576;DHT22;33304;52.456;13.328;2024-01-30T00:54:02;3.70;17.20
47576;DHT22;33304;52.456;13.328;2024-01-30T00:56:31;3.70;17.30
47576;DHT22;33304;52.456;13.328;2024-01-30T00:58:58;3.70;17.60
47576;DHT22;33304;52.456;13.328;2024-01-30T01:01:25;3.60;17.40
47576;DHT22;33304;52.456;13.328;2024-01-30T01:03:52;3.60;18.30
47576;DHT22;33304;52.456;13.328;2024-01-30T01:06:19;3.60;17.90
47576;DHT22;33304;52.456;13.328;2024-01-30T01:08:46;3.60;17.90
47576;DHT22;33304;52.456;13.328;2024-01-30T01:11:13;3.50;18.50
47576;DHT22;33304;52.456;13.328;2024-01-30T01:13:41;3.50;18.50
47576;DHT22;33304;52.456;13.328;2024-01-30T01:16:08;3.40;18.50
47576;DHT22;33304;52.456;13.328;2024-01-30T01:18:36;3.50;18.50
47576;DHT22;33304;52.456;13.328;2024-01-30T01:21:03;3.50;18.50
47576;DHT22;33304;52.456;13.328;2024-01-30T01:23:30;3.40;18.40
47576;DHT22;33304;52.456;13.328;2024-01-30T01:25:57;3.40;18.50
47576;DHT22;33304;52.456;13.328;2024-01-30T01:28:25;3.50;18.50
47576;DHT22;33304;52.456;13.328;2024-01-30T01:30:54;3.40;18.40
47576;DHT22;33304;52.456;13.328;2024-01-30T01:33:25;3.50;18.50
47576;DHT22;33304;52.456;13.328;2024-01-30T01:35:52;3.40;18.50
47576;DHT22;33304;52.456;13.328;2024-01-30T01:38:19;3.40;18.40
47576;DHT22;33304;52.456;13.328;2024-01-30T01:40:46;3.50;18.50
47576;DHT22;33304;52.456;13.328;2024-01-30T01:43:13;3.50;18.50
47576;DHT22;33304;52.456;13.328;2024-01-30T01:45:40;3.40;18.40
47576;DHT22;33304;52.456;13.328;2024-01-30T01:48:09;3.50;18.50
47576;DHT22;33304;52.456;13.328;2024-01-30T01:50:36;3.50;18.50
47576;DHT22;33304;52.456;13.328;2024-01-30T01:53:05;3.40;18.40
47576;DHT22;33304;52.456;13.328;2024-01-30T01:55:35;3.40;19.10
47576;DHT22;33304;52.456;13.328;2024-01-30T01:58:02;3.30;18.80
47576;DHT22;33304;52.456;13.328;2024-01-30T02:00:30;3.30;19.70
47576;DHT22;33304;52.456;13.328;2024-01-30T02:02:57;3.30;19.80
47576;DHT22;33304;52.456;13.328;2024-01-30T02:05:26;3.30;19.70
47576;DHT22;33304;52.456;13.328;2024-01-30T02:07:54;3.30;19.90
47576;DHT22;33304;52.456;13.328;2024-01-30T02:10:21;3.30;19.70
47576;DHT22;33304;52.456;13.328;2024-01-30T02:12:48;3.30;20.00
47576;DHT22;33304;52.456;13.328;2024-01-30T02:15:15;3.30;19.70
47576;DHT22;33304;52.456;13.328;2024-01-30T02:17:42;3.20;20.20
47576;DHT22;33304;52.456;13.328;2024-01-30T02:20:10;3.20;20.70
47576;DHT22;33304;52.456;13.328;2024-01-30T02:22:40;3.20;20.70
47576;DHT22;33304;52.456;13.328;2024-01-30T02:25:08;3.30;20.70
47576;DHT22;33304;52.456;13.328;2024-01-30T02:27:35;3.20;20.80
47576;DHT22;33304;52.456;13.328;2024-01-30T02:30:03;3.20;21.10
47576;DHT22;33304;52.456;13.328;2024-01-30T02:32:30;3.30;21.10
47576;DHT22;33304;52.456;13.328;2024-01-30T02:34:57;3.30;20.50
47576;DHT22;33304;52.456;13.328;2024-01-30T02:37:24;3.30;21.00
47576;DHT22;33304;52.456;13.328;2024-01-30T02:39:52;3.30;21.00
47576;DHT22;33304;52.456;13.328;2024-01-30T02:42:19;3.30;21.10
47576;DHT22;33304;52.456;13.328;2024-01-30T02:44:47;3.30;21.50
47576;DHT22;33304;52.456;13.328;2024-01-30T02:47:14;3.20;21.80
47576;DHT22;33304;52.456;13.328;2024-01-30T02:49:41;3.20;21.90
47576;DHT22;33304;52.456;13.328;2024-01-30T02:52:08;3.20;21.70
47576;DHT22;33304;52.456;13.328;2024-01-30T02:54:35;3.20;22.10
47576;DHT22;33304;52.456;13.328;2024-01-30T02:57:03;3.10;22.30
47576;DHT22;33304;52.456;13.328;2024-01-30T02:59:30;3.10;22.70
47576;DHT22;33304;52.456;13.328;2024-01-30T03:01:59;3.20;22.70
47576;DHT22;33304;52.456;13.328;2024-01-30T03:04:26;3.20;22.10
47576;DHT22;33304;52.456;13.328;2024-01-30T03:06:53;3.10;22.70
47576;DHT22;33304;52.456;13.328;2024-01-30T03:09:20;3.20;22.90
47576;DHT22;33304;52.456;13.328;2024-01-30T03:11:47;3.10;23.20
47576;DHT22;33304;52.456;13.328;2024-01-30T03:14:15;3.20;23.00
47576;DHT22;33304;52.456;13.328;2024-01-30T03:16:42;3.10;23.00
47576;DHT22;33304;52.456;13.328;2024-01-30T03:19:09;3.10;23.30
47576;DHT22;33304;52.456;13.328;2024-01-30T03:21:36;3.10;23.00
47576;DHT22;33304;52.456;13.328;2024-01-30T03:24:04;3.10;23.70
47576;DHT22;33304;52.456;13.328;2024-01-30T03:26:31;3.20;23.60
47576;DHT22;33304;52.456;13.328;2024-01-30T03:28:58;3.20;23.00
47576;DHT22;33304;52.456;13.328;2024-01-30T03:31:26;3.10;23.20
47576;DHT22;33304;52.456;13.328;2024-01-30T03:33:53;3.00;24.00
47576;DHT22;33304;52.456;13.328;2024-01-30T03:36:20;3.00;24.40
47576;DHT22;33304;52.456;13.328;2024-01-30T03:38:48;3.00;24.70
47576;DHT22;33304;52.456;13.328;2024-01-30T03:41:15;3.00;24.60
47576;DHT22;33304;52.456;13.328;2024-01-30T03:43:42;3.00;24.90
47576;DHT22;33304;52.456;13.328;2024-01-30T03:46:09;2.90;25.40
47576;DHT22;33304;52.456;13.328;2024-01-30T03:48:37;3.00;25.60
47576;DHT22;33304;52.456;13.328;2024-01-30T03:51:05;2.90;26.00
47576;DHT22;33304;52.456;13.328;2024-01-30T03:53:32;2.90;25.90
47576;DHT22;33304;52.456;13.328;2024-01-30T03:55:59;2.90;25.90
47576;DHT22;33304;52.456;13.328;2024-01-30T03:58:26;2.90;26.40
47576;DHT22;33304;52.456;13.328;2024-01-30T04:00:53;2.90;26.40
47576;DHT22;33304;52.456;13.328;2024-01-30T04:03:20;3.00;25.70
47576;DHT22;33304;52.456;13.328;2024-01-30T04:05:48;3.00;25.00
47576;DHT22;33304;52.456;13.328;2024-01-30T04:08:15;3.00;25.40
47576;DHT22;33304;52.456;13.328;2024-01-30T04:10:43;2.90;26.70
47576;DHT22;33304;52.456;13.328;2024-01-30T04:13:10;2.90;27.40
47576;DHT22;33304;52.456;13.328;2024-01-30T04:15:37;2.80;27.30
47576;DHT22;33304;52.456;13.328;2024-01-30T04:18:05;2.80;27.40
47576;DHT22;33304;52.456;13.328;2024-01-30T04:20:32;2.90;27.40
47576;DHT22;33304;52.456;13.328;2024-01-30T04:23:00;2.80;27.30
47576;DHT22;33304;52.456;13.328;2024-01-30T04:25:27;2.80;27.40
47576;DHT22;33304;52.456;13.328;2024-01-30T04:27:54;2.80;27.60
47576;DHT22;33304;52.456;13.328;2024-01-30T04:30:21;2.90;27.40
47576;DHT22;33304;52.456;13.328;2024-01-30T04:32:48;2.90;27.40
47576;DHT22;33304;52.456;13.328;2024-01-30T04:35:15;2.90;27.40
47576;DHT22;33304;52.456;13.328;2024-01-30T04:37:43;2.80;27.40
47576;DHT22;33304;52.456;13.328;2024-01-30T04:40:12;2.90;27.50
47576;DHT22;33304;52.456;13.328;2024-01-30T04:42:39;2.90;27.50
47576;DHT22;33304;52.456;13.328;2024-01-30T04:45:06;3.00;27.50
47576;DHT22;33304;52.456;13.328;2024-01-30T04:47:34;2.90;27.60
47576;DHT22;33304;52.456;13.328;2024-01-30T04:50:01;2.90;27.40
47576;DHT22;33304;52.456;13.328;2024-01-30T04:52:30;2.80;28.20
47576;DHT22;33304;52.456;13.328;2024-01-30T04:54:57;2.90;27.70
47576;DHT22;33304;52.456;13.328;2024-01-30T04:57:26;2.90;28.30
47576;DHT22;33304;52.456;13.328;2024-01-30T04:59:53;2.80;28.60
47576;DHT22;33304;52.456;13.328;2024-01-30T05:02:20;2.80;28.80
47576;DHT22;33304;52.456;13.328;2024-01-30T05:04:47;2.80;29.20
47576;DHT22;33304;52.456;13.328;2024-01-30T05:07:14;2.80;29.20
47576;DHT22;33304;52.456;13.328;2024-01-30T05:09:41;2.90;29.30
47576;DHT22;33304;52.456;13.328;2024-01-30T05:12:09;2.90;28.30
47576;DHT22;33304;52.456;13.328;2024-01-30T05:14:37;2.90;28.10
47576;DHT22;33304;52.456;13.328;2024-01-30T05:17:04;2.90;27.50
47576;DHT22;33304;52.456;13.328;2024-01-30T05:19:31;2.90;28.80
47576;DHT22;33304;52.456;13.328;2024-01-30T05:21:58;2.90;28.30
47576;DHT22;33304;52.456;13.328;2024-01-30T05:24:25;2.90;28.40
47576;DHT22;33304;52.456;13.328;2024-01-30T05:26:52;2.80;28.70
47576;DHT22;33304;52.456;13.328;2024-01-30T05:29:19;2.90;28.90
47576;DHT22;33304;52.456;13.328;2024-01-30T05:31:47;2.80;29.00
47576;DHT22;33304;52.456;13.328;2024-01-30T05:34:14;2.80;28.90
47576;DHT22;33304;52.456;13.328;2024-01-30T05:36:42;2.70;29.30
47576;DHT22;33304;52.456;13.328;2024-01-30T05:39:09;2.80;29.20
47576;DHT22;33304;52.456;13.328;2024-01-30T05:41:37;2.80;29.70
47576;DHT22;33304;52.456;13.328;2024-01-30T05:44:04;2.80;29.20
47576;DHT22;33304;52.456;13.328;2024-01-30T05:46:31;2.90;29.40
47576;DHT22;33304;52.456;13.328;2024-01-30T05:48:59;2.90;28.60
47576;DHT22;33304;52.456;13.328;2024-01-30T05:51:26;2.90;29.00
47576;DHT22;33304;52.456;13.328;2024-01-30T05:53:53;2.90;28.80
47576;DHT22;33304;52.456;13.328;2024-01-30T05:56:21;2.90;28.70
47576;DHT22;33304;52.456;13.328;2024-01-30T05:58:48;2.80;28.50
47576;DHT22;33304;52.456;13.328;2024-01-30T06:01:16;2.80;28.50
47576;DHT22;33304;52.456;13.328;2024-01-30T06:03:43;2.80;29.00
47576;DHT22;33304;52.456;13.328;2024-01-30T06:06:11;2.90;29.20
47576;DHT22;33304;52.456;13.328;2024-01-30T06:08:39;2.80;29.10
47576;DHT22;33304;52.456;13.328;2024-01-30T06:11:06;2.70;29.20
47576;DHT22;33304;52.456;13.328;2024-01-30T06:13:36;2.70;29.40
47576;DHT22;33304;52.456;13.328;2024-01-30T06:16:04;2.80;29.50
47576;DHT22;33304;52.456;13.328;2024-01-30T06:18:31;2.80;29.00
47576;DHT22;33304;52.456;13.328;2024-01-30T06:20:59;2.80;29.30
47576;DHT22;33304;52.456;13.328;2024-01-30T06:23:27;2.80;29.20
47576;DHT22;33304;52.456;13.328;2024-01-30T06:25:54;2.80;29.80
47576;DHT22;33304;52.456;13.328;2024-01-30T06:28:20;2.80;29.50
47576;DHT22;33304;52.456;13.328;2024-01-30T06:30:48;2.80;29.10
47576;DHT22;33304;52.456;13.328;2024-01-30T06:33:15;2.80;29.90
47576;DHT22;33304;52.456;13.328;2024-01-30T06:35:42;2.80;29.20
47576;DHT22;33304;52.456;13.328;2024-01-30T06:38:11;2.80;29.60
47576;DHT22;33304;52.456;13.328;2024-01-30T06:40:40;2.80;29.40
47576;DHT22;33304;52.456;13.328;2024-01-30T06:43:07;2.80;29.60
47576;DHT22;33304;52.456;13.328;2024-01-30T06:45:34;2.90;29.60
47576;DHT22;33304;52.456;13.328;2024-01-30T06:48:01;2.90;29.50
47576;DHT22;33304;52.456;13.328;2024-01-30T06:50:28;2.90;29.30
47576;DHT22;33304;52.456;13.328;2024-01-30T06:52:55;2.90;29.00
47576;DHT22;33304;52.456;13.328;2024-01-30T06:55:22;3.00;29.40
47576;DHT22;33304;52.456;13.328;2024-01-30T06:57:51;2.90;29.20
47576;DHT22;33304;52.456;13.328;2024-01-30T07:00:19;2.90;28.90
47576;DHT22;33304;52.456;13.328;2024-01-30T07:02:46;3.00;29.50
47576;DHT22;33304;52.456;13.328;2024-01-30T07:05:13;3.00;29.20
47576;DHT22;33304;52.456;13.328;2024-01-30T07:07:41;3.00;28.80
47576;DHT22;33304;52.456;13.328;2024-01-30T07:10:08;3.00;28.50
47576;DHT22;33304;52.456;13.328;2024-01-30T07:12:35;3.00;28.80
47576;DHT22;33304;52.456;13.328;2024-01-30T07:15:05;3.00;29.00
47576;DHT22;33304;52.456;13.328;2024-01-30T07:17:33;3.00;28.60
47576;DHT22;33304;52.456;13.328;2024-01-30T07:20:01;3.10;28.40
47576;DHT22;33304;52.456;13.328;2024-01-30T07:22:29;3.10;28.20
47576;DHT22;33304;52.456;13.328;2024-01-30T07:24:57;3.10;27.50
47576;DHT22;33304;52.456;13.328;2024-01-30T07:27:24;3.20;27.60
47576;DHT22;33304;52.456;13.328;2024-01-30T07:29:51;3.20;27.60
47576;DHT22;33304;52.456;13.328;2024-01-30T07:32:19;3.20;27.60
47576;DHT22;33304;52.456;13.328;2024-01-30T07:34:46;3.20;27.60
47576;DHT22;33304;52.456;13.328;2024-01-30T07:37:13;3.30;27.10
47576;DHT22;33304;52.456;13.328;2024-01-30T07:39:41;3.40;27.20
47576;DHT22;33304;52.456;13.328;2024-01-30T07:42:09;3.30;27.20
47576;DHT22;33304;52.456;13.328;2024-01-30T07:44:36;3.40;26.30
47576;DHT22;33304;52.456;13.328;2024-01-30T07:47:04;3.50;25.50
47576;DHT22;33304;52.456;13.328;2024-01-30T07:49:32;3.40;25.80
47576;DHT22;33304;52.456;13.328;2024-01-30T07:51:59;3.50;26.10
47576;DHT22;33304;52.456;13.328;2024-01-30T07:54:26;3.50;25.90
47576;DHT22;33304;52.456;13.328;2024-01-30T07:56:53;3.50;24.90
47576;DHT22;33304;52.456;13.328;2024-01-30T07:59:21;3.60;25.00
47576;DHT22;33304;52.456;13.328;2024-01-30T08:01:50;3.60;24.70
47576;DHT22;33304;52.456;13.328;2024-01-30T08:04:18;3.60;24.80
47576;DHT22;33304;52.456;13.328;2024-01-30T08:06:46;3.60;25.00
47576;DHT22;33304;52.456;13.328;2024-01-30T08:09:14;3.80;24.10
47576;DHT22;33304;52.456;13.328;2024-01-30T08:11:41;3.70;23.60
47576;DHT22;33304;52.456;13.328;2024-01-30T08:14:08;3.70;24.10
47576;DHT22;33304;52.456;13.328;2024-01-30T08:16:35;3.70;24.60
47576;DHT22;33304;52.456;13.328;2024-01-30T08:19:03;3.80;23.50
47576;DHT22;33304;52.456;13.328;2024-01-30T08:21:30;3.90;24.30
47576;DHT22;33304;52.456;13.328;2024-01-30T08:24:05;4.00;22.60
47576;DHT22;33304;52.456;13.328;2024-01-30T08:26:32;3.90;22.90
47576;DHT22;33304;52.456;13.328;2024-01-30T08:28:59;4.00;22.70
47576;DHT22;33304;52.456;13.328;2024-01-30T08:31:27;4.00;22.90
47576;DHT22;33304;52.456;13.328;2024-01-30T08:33:54;4.30;20.70
47576;DHT22;33304;52.456;13.328;2024-01-30T08:36:21;4.30;19.30
47576;DHT22;33304;52.456;13.328;2024-01-30T08:38:48;4.40;19.30
47576;DHT22;33304;52.456;13.328;2024-01-30T08:41:16;4.40;19.10
47576;DHT22;33304;52.456;13.328;2024-01-30T08:43:43;4.40;19.10
47576;DHT22;33304;52.456;13.328;2024-01-30T08:46:11;4.50;19.20
47576;DHT22;33304;52.456;13.328;2024-01-30T08:48:38;4.70;19.00
47576;DHT22;33304;52.456;13.328;2024-01-30T08:51:05;4.70;18.00
47576;DHT22;33304;52.456;13.328;2024-01-30T08:53:34;4.60;18.00
47576;DHT22;33304;52.456;13.328;2024-01-30T08:56:02;4.60;18.50
47576;DHT22;33304;52.456;13.328;2024-01-30T08:58:31;4.60;18.60
47576;DHT22;33304;52.456;13.328;2024-01-30T09:00:58;4.70;17.60
47576;DHT22;33304;52.456;13.328;2024-01-30T09:03:25;4.80;17.70
47576;DHT22;33304;52.456;13.328;2024-01-30T09:05:53;4.90;17.30
47576;DHT22;33304;52.456;13.328;2024-01-30T09:08:20;4.90;17.20
47576;DHT22;33304;52.456;13.328;2024-01-30T09:10:48;4.90;16.80
47576;DHT22;33304;52.456;13.328;2024-01-30T09:13:15;4.90;16.60
47576;DHT22;33304;52.456;13.328;2024-01-30T09:15:44;5.00;16.30
47576;DHT22;33304;52.456;13.328;2024-01-30T09:18:11;5.10;15.90
47576;DHT22;33304;52.456;13.328;2024-01-30T09:20:38;5.10;15.70
47576;DHT22;33304;52.456;13.328;2024-01-30T09:23:05;5.10;15.90
47576;DHT22;33304;52.456;13.328;2024-01-30T09:25:32;5.10;15.90
47576;DHT22;33304;52.456;13.328;2024-01-30T09:28:00;5.20;15.90
47576;DHT22;33304;52.456;13.328;2024-01-30T09:30:27;5.40;14.70
47576;DHT22;33304;52.456;13.328;2024-01-30T09:32:56;5.40;14.80
47576;DHT22;33304;52.456;13.328;2024-01-30T09:35:23;5.30;14.30
47576;DHT22;33304;52.456;13.328;2024-01-30T09:37:50;5.50;13.90
47576;DHT22;33304;52.456;13.328;2024-01-30T09:40:17;5.50;13.40
47576;DHT22;33304;52.456;13.328;2024-01-30T09:42:47;5.40;13.20
47576;DHT22;33304;52.456;13.328;2024-01-30T09:45:14;5.50;13.20
47576;DHT22;33304;52.456;13.328;2024-01-30T09:47:43;5.60;12.90
47576;DHT22;33304;52.456;13.328;2024-01-30T09:50:12;5.60;12.80
47576;DHT22;33304;52.456;13.328;2024-01-30T09:52:40;5.60;12.50
47576;DHT22;33304;52.456;13.328;2024-01-30T09:55:07;5.80;11.70
47576;DHT22;33304;52.456;13.328;2024-01-30T09:57:35;5.80;10.40
47576;DHT22;33304;52.456;13.328;2024-01-30T10:00:02;5.90;10.40
47576;DHT22;33304;52.456;13.328;2024-01-30T10:02:38;6.00;10.50
47576;DHT22;33304;52.456;13.328;2024-01-30T10:05:07;6.10;10.60
47576;DHT22;33304;52.456;13.328;2024-01-30T10:07:36;6.30;9.20
47576;DHT22;33304;52.456;13.328;2024-01-30T10:10:05;6.20;9.30
47576;DHT22;33304;52.456;13.328;2024-01-30T10:12:32;6.30;8.90
47576;DHT22;33304;52.456;13.328;2024-01-30T10:14:59;6.40;7.90
47576;DHT22;33304;52.456;13.328;2024-01-30T10:17:26;6.40;7.70
47576;DHT22;33304;52.456;13.328;2024-01-30T10:19:54;6.50;7.20
47576;DHT22;33304;52.456;13.328;2024-01-30T10:22:21;6.60;7.00
47576;DHT22;33304;52.456;13.328;2024-01-30T10:24:49;6.70;7.00
47576;DHT22;33304;52.456;13.328;2024-01-30T10:27:16;6.60;5.90
47576;DHT22;33304;52.456;13.328;2024-01-30T10:29:48;6.60;6.00
47576;DHT22;33304;52.456;13.328;2024-01-30T10:32:15;6.70;5.50
47576;DHT22;33304;52.456;13.328;2024-01-30T10:34:42;6.80;5.70
47576;DHT22;33304;52.456;13.328;2024-01-30T10:37:10;6.80;4.90
47576;DHT22;33304;52.456;13.328;2024-01-30T10:39:39;6.80;4.60
47576;DHT22;33304;52.456;13.328;2024-01-30T10:42:11;6.80;4.70
47576;DHT22;33304;52.456;13.328;2024-01-30T10:44:44;7.00;4.50
47576;DHT22;33304;52.456;13.328;2024-01-30T10:47:20;7.10;4.50
47576;DHT22;33304;52.456;13.328;2024-01-30T10:49:48;7.30;3.50
47576;DHT22;33304;52.456;13.328;2024-01-30T10:52:17;7.10;3.20
47576;DHT22;33304;52.456;13.328;2024-01-30T10:54:44;7.10;2.70
47576;DHT22;33304;52.456;13.328;2024-01-30T10:57:14;7.30;3.10
47576;DHT22;33304;52.456;13.328;2024-01-30T10:59:43;7.30;2.40
47576;DHT22;33304;52.456;13.328;2024-01-30T11:02:11;7.30;2.30
47576;DHT22;33304;52.456;13.328;2024-01-30T11:04:40;7.50;1.50
47576;DHT22;33304;52.456;13.328;2024-01-30T11:07:17;7.30;1.40
47576;DHT22;33304;52.456;13.328;2024-01-30T11:09:50;7.50;1.40
47576;DHT22;33304;52.456;13.328;2024-01-30T11:12:23;7.70;1.20
47576;DHT22;33304;52.456;13.328;2024-01-30T11:15:00;7.60;1.50
47576;DHT22;33304;52.456;13.328;2024-01-30T11:17:40;7.60;1.50
47576;DHT22;33304;52.456;13.328;2024-01-30T11:20:10;7.60;1.40
47576;DHT22;33304;52.456;13.328;2024-01-30T11:22:37;7.60;1.50
47576;DHT22;33304;52.456;13.328;2024-01-30T11:25:05;7.40;1.40
47576;DHT22;33304;52.456;13.328;2024-01-30T11:27:33;7.50;1.40
47576;DHT22;33304;52.456;13.328;2024-01-30T11:30:04;7.50;1.40
47576;DHT22;33304;52.456;13.328;2024-01-30T11:32:31;7.60;1.50
47576;DHT22;33304;52.456;13.328;2024-01-30T11:34:58;7.70;1.60
47576;DHT22;33304;52.456;13.328;2024-01-30T11:37:26;7.70;1.60
47576;DHT22;33304;52.456;13.328;2024-01-30T11:39:53;7.80;1.60
47576;DHT22;33304;52.456;13.328;2024-01-30T11:42:23;7.70;1.60
47576;DHT22;33304;52.456;13.328;2024-01-30T11:44:52;7.80;1.60
47576;DHT22;33304;52.456;13.328;2024-01-30T11:47:20;7.90;1.50
47576;DHT22;33304;52.456;13.328;2024-01-30T11:49:47;8.00;1.20
47576;DHT22;33304;52.456;13.328;2024-01-30T11:52:14;8.00;1.70
47576;DHT22;33304;52.456;13.328;2024-01-30T11:54:41;8.20;1.00
47576;DHT22;33304;52.456;13.328;2024-01-30T11:57:09;8.10;1.00
47576;DHT22;33304;52.456;13.328;2024-01-30T11:59:36;8.00;1.00
47576;DHT22;33304;52.456;13.328;2024-01-30T12:02:04;8.00;1.70
47576;DHT22;33304;52.456;13.328;2024-01-30T12:04:31;7.90;1.70
47576;DHT22;33304;52.456;13.328;2024-01-30T12:06:58;7.90;1.70
47576;DHT22;33304;52.456;13.328;2024-01-30T12:09:26;7.80;1.60
47576;DHT22;33304;52.456;13.328;2024-01-30T12:11:53;7.90;1.70
47576;DHT22;33304;52.456;13.328;2024-01-30T12:14:22;8.20;1.90
47576;DHT22;33304;52.456;13.328;2024-01-30T12:16:51;8.30;1.00
47576;DHT22;33304;52.456;13.328;2024-01-30T12:19:25;8.20;1.00
47576;DHT22;33304;52.456;13.328;2024-01-30T12:21:55;8.30;1.00
47576;DHT22;33304;52.456;13.328;2024-01-30T12:24:24;8.00;1.70
47576;DHT22;33304;52.456;13.328;2024-01-30T12:26:52;8.10;1.80
47576;DHT22;33304;52.456;13.328;2024-01-30T12:29:20;8.30;2.00
47576;DHT22;33304;52.456;13.328;2024-01-30T12:31:48;8.40;2.00
47576;DHT22;33304;52.456;13.328;2024-01-30T12:34:15;8.30;2.00
47576;DHT22;33304;52.456;13.328;2024-01-30T12:36:44;8.30;2.00
47576;DHT22;33304;52.456;13.328;2024-01-30T12:39:11;8.60;2.00
47576;DHT22;33304;52.456;13.328;2024-01-30T12:41:40;8.30;2.00
47576;DHT22;33304;52.456;13.328;2024-01-30T12:44:07;8.40;2.00
47576;DHT22;33304;52.456;13.328;2024-01-30T12:46:34;8.60;2.10
47576;DHT22;33304;52.456;13.328;2024-01-30T12:49:01;8.60;2.10
47576;DHT22;33304;52.456;13.328;2024-01-30T12:51:29;8.60;2.10
47576;DHT22;33304;52.456;13.328;2024-01-30T12:53:57;8.70;2.20
47576;DHT22;33304;52.456;13.328;2024-01-30T12:56:24;8.60;2.10
47576;DHT22;33304;52.456;13.328;2024-01-30T12:58:51;8.70;2.20
47576;DHT22;33304;52.456;13.328;2024-01-30T13:01:18;8.70;2.20
47576;DHT22;33304;52.456;13.328;2024-01-30T13:03:46;8.60;2.20
47576;DHT22;33304;52.456;13.328;2024-01-30T13:06:13;8.70;2.20
47576;DHT22;33304;52.456;13.328;2024-01-30T13:08:40;8.70;2.20
47576;DHT22;33304;52.456;13.328;2024-01-30T13:11:08;8.70;2.20
47576;DHT22;33304;52.456;13.328;2024-01-30T13:13:36;8.60;2.10
47576;DHT22;33304;52.456;13.328;2024-01-30T13:16:03;8.60;2.10
47576;DHT22;33304;52.456;13.328;2024-01-30T13:18:31;8.50;2.10
47576;DHT22;33304;52.456;13.328;2024-01-30T13:20:58;8.60;2.10
47576;DHT22;33304;52.456;13.328;2024-01-30T13:23:25;8.70;2.20
47576;DHT22;33304;52.456;13.328;2024-01-30T13:25:52;8.70;2.20
47576;DHT22;33304;52.456;13.328;2024-01-30T13:28:24;8.80;2.30
47576;DHT22;33304;52.456;13.328;2024-01-30T13:30:52;8.50;3.20
47576;DHT22;33304;52.456;13.328;2024-01-30T13:33:19;8.70;3.50
47576;DHT22;33304;52.456;13.328;2024-01-30T13:35:46;8.60;3.20
47576;DHT22;33304;52.456;13.328;2024-01-30T13:38:13;8.80;2.30
47576;DHT22;33304;52.456;13.328;2024-01-30T13:40:41;8.90;2.40
47576;DHT22;33304;52.456;13.328;2024-01-30T13:43:08;8.80;3.00
47576;DHT22;33304;52.456;13.328;2024-01-30T13:45:37;8.90;2.90
47576;DHT22;33304;52.456;13.328;2024-01-30T13:48:04;9.10;2.50
47576;DHT22;33304;52.456;13.328;2024-01-30T13:50:32;9.00;2.60
47576;DHT22;33304;52.456;13.328;2024-01-30T13:53:00;9.10;2.50
47576;DHT22;33304;52.456;13.328;2024-01-30T13:55:27;8.90;3.40
47576;DHT22;33304;52.456;13.328;2024-01-30T13:57:54;9.00;2.90
47576;DHT22;33304;52.456;13.328;2024-01-30T14:00:21;9.00;3.10
47576;DHT22;33304;52.456;13.328;2024-01-30T14:02:52;8.90;3.80
47576;DHT22;33304;52.456;13.328;2024-01-30T14:05:21;8.90;3.30
47576;DHT22;33304;52.456;13.328;2024-01-30T14:07:48;8.90;3.90
47576;DHT22;33304;52.456;13.328;2024-01-30T14:10:16;9.00;3.90
47576;DHT22;33304;52.456;13.328;2024-01-30T14:12:43;9.10;3.30
47576;DHT22;33304;52.456;13.328;2024-01-30T14:15:11;9.00;3.60
47576;DHT22;33304;52.456;13.328;2024-01-30T14:17:38;8.90;4.00
47576;DHT22;33304;52.456;13.328;2024-01-30T14:20:08;8.80;4.50
47576;DHT22;33304;52.456;13.328;2024-01-30T14:22:35;9.00;4.20
47576;DHT22;33304;52.456;13.328;2024-01-30T14:25:02;9.10;4.30
47576;DHT22;33304;52.456;13.328;2024-01-30T14:27:29;9.20;4.10
47576;DHT22;33304;52.456;13.328;2024-01-30T14:29:57;9.20;4.00
47576;DHT22;33304;52.456;13.328;2024-01-30T14:32:24;9.20;3.80
47576;DHT22;33304;52.456;13.328;2024-01-30T14:34:51;9.10;4.20
47576;DHT22;33304;52.456;13.328;2024-01-30T14:37:21;9.00;4.60
47576;DHT22;33304;52.456;13.328;2024-01-30T14:39:48;9.00;4.80
47576;DHT22;33304;52.456;13.328;2024-01-30T14:42:15;9.20;4.80
47576;DHT22;33304;52.456;13.328;2024-01-30T14:44:42;9.00;4.70
47576;DHT22;33304;52.456;13.328;2024-01-30T14:47:09;9.00;5.20
47576;DHT22;33304;52.456;13.328;2024-01-30T14:49:36;9.10;4.90
47576;DHT22;33304;52.456;13.328;2024-01-30T14:52:03;9.00;5.70
47576;DHT22;33304;52.456;13.328;2024-01-30T14:54:32;9.00;5.70
47576;DHT22;33304;52.456;13.328;2024-01-30T14:57:00;9.10;5.60
47576;DHT22;33304;52.456;13.328;2024-01-30T14:59:27;9.10;5.50
47576;DHT22;33304;52.456;13.328;2024-01-30T15:01:54;9.00;6.00
47576;DHT22;33304;52.456;13.328;2024-01-30T15:04:21;9.10;5.60
47576;DHT22;33304;52.456;13.328;2024-01-30T15:06:48;8.90;6.30
47576;DHT22;33304;52.456;13.328;2024-01-30T15:09:15;8.90;6.70
47576;DHT22;33304;52.456;13.328;2024-01-30T15:11:44;8.80;7.20
47576;DHT22;33304;52.456;13.328;2024-01-30T15:14:11;9.00;6.50
47576;DHT22;33304;52.456;13.328;2024-01-30T15:16:39;8.90;6.60
47576;DHT22;33304;52.456;13.328;2024-01-30T15:19:06;8.90;7.20
47576;DHT22;33304;52.456;13.328;2024-01-30T15:21:33;8.70;7.30
47576;DHT22;33304;52.456;13.328;2024-01-30T15:24:00;8.60;8.00
47576;DHT22;33304;52.456;13.328;2024-01-30T15:26:27;8.80;7.60
47576;DHT22;33304;52.456;13.328;2024-01-30T15:28:56;8.60;8.30
47576;DHT22;33304;52.456;13.328;2024-01-30T15:31:23;8.60;8.60
47576;DHT22;33304;52.456;13.328;2024-01-30T15:33:50;8.60;8.80
47576;DHT22;33304;52.456;13.328;2024-01-30T15:36:17;8.70;8.70
47576;DHT22;33304;52.456;13.328;2024-01-30T15:38:44;8.50;9.30
47576;DHT22;33304;52.456;13.328;2024-01-30T15:41:11;8.70;8.70